createdAt,value
2017-09-15T00:00:02.941Z,67.21
2017-09-15T00:00:34.745Z,67.26
2017-09-15T00:01:06.465Z,67.16
2017-09-15T00:01:38.141Z,67.15
2017-09-15T00:02:09.797Z,67.22
2017-09-15T00:02:41.460Z,67.34
2017-09-15T00:03:13.105Z,67.17
2017-09-15T00:03:44.753Z,67.14
2017-09-15T00:04:16.409Z,67.22
2017-09-15T00:04:48.299Z,67.24
2017-09-15T00:05:19.949Z,67.24
2017-09-15T00:05:51.597Z,67.31
2017-09-15T00:06:23.281Z,67.32
2017-09-15T00:06:54.926Z,67.35
2017-09-15T00:07:26.580Z,67.21
2017-09-15T00:07:58.457Z,67.21
2017-09-15T00:08:30.294Z,67.24
2017-09-15T00:09:02.048Z,67.26
2017-09-15T00:09:33.998Z,67.26
2017-09-15T00:10:05.689Z,67.27
2017-09-15T00:10:37.341Z,67.25
2017-09-15T00:11:09.110Z,67.23
2017-09-15T00:11:40.873Z,67.25
2017-09-15T00:12:12.521Z,67.17
2017-09-15T00:12:44.166Z,67.20
2017-09-15T00:13:15.818Z,67.33
2017-09-15T00:13:47.473Z,67.37
2017-09-15T00:14:19.121Z,67.43
2017-09-15T00:14:50.770Z,67.46
2017-09-15T00:15:22.424Z,67.45
2017-09-15T00:15:54.069Z,67.38
2017-09-15T00:16:25.765Z,67.48
2017-09-15T00:16:57.409Z,67.53
2017-09-15T00:17:29.058Z,67.54
2017-09-15T00:18:00.701Z,67.48
2017-09-15T00:18:32.349Z,67.50
2017-09-15T00:19:03.994Z,67.52
2017-09-15T00:19:35.637Z,67.53
2017-09-15T00:20:07.286Z,67.61
2017-09-15T00:20:38.934Z,67.56
2017-09-15T00:21:10.825Z,67.71
2017-09-15T00:21:42.482Z,67.66
2017-09-15T00:22:14.128Z,67.75
2017-09-15T00:22:45.774Z,67.82
2017-09-15T00:23:17.422Z,67.62
2017-09-15T00:23:49.069Z,68.57
2017-09-15T00:24:20.717Z,68.08
2017-09-15T00:24:52.361Z,68.10
2017-09-15T00:25:24.010Z,67.98
2017-09-15T00:25:55.818Z,67.99
2017-09-15T00:26:28.381Z,67.91
2017-09-15T00:27:00.083Z,67.95
2017-09-15T00:27:31.733Z,68.10
2017-09-15T00:28:03.378Z,68.16
2017-09-15T00:28:35.256Z,67.99
2017-09-15T00:29:07.135Z,68.03
2017-09-15T00:29:38.781Z,68.07
2017-09-15T00:30:10.430Z,68.19
2017-09-15T00:30:42.131Z,68.33
2017-09-15T00:31:13.781Z,68.29
2017-09-15T00:31:45.429Z,68.16
2017-09-15T00:32:17.350Z,68.18
2017-09-15T00:32:49.057Z,68.18
2017-09-15T00:33:20.705Z,68.20
2017-09-15T00:33:52.350Z,68.17
2017-09-15T00:34:23.997Z,68.37
2017-09-15T00:34:55.767Z,68.33
2017-09-15T00:35:27.522Z,68.25
2017-09-15T00:35:59.472Z,68.29
2017-09-15T00:36:31.121Z,68.25
2017-09-15T00:37:02.764Z,68.30
2017-09-15T00:37:34.461Z,68.36
2017-09-15T00:38:06.348Z,68.48
2017-09-15T00:38:37.997Z,68.40
2017-09-15T00:39:09.645Z,68.30
2017-09-15T00:39:41.289Z,68.56
2017-09-15T00:40:12.942Z,68.44
2017-09-15T00:40:44.609Z,68.33
2017-09-15T00:41:16.253Z,68.51
2017-09-15T00:41:47.901Z,68.54
2017-09-15T00:42:19.746Z,68.42
2017-09-15T00:42:51.690Z,68.56
2017-09-15T00:43:23.380Z,68.45
2017-09-15T00:43:55.036Z,68.48
2017-09-15T00:44:26.685Z,68.42
2017-09-15T00:44:58.334Z,68.48
2017-09-15T00:45:29.977Z,68.79
2017-09-15T00:46:01.621Z,68.69
2017-09-15T00:46:33.273Z,68.64
2017-09-15T00:47:04.912Z,68.79
2017-09-15T00:47:36.562Z,68.74
2017-09-15T00:48:08.454Z,68.90
2017-09-15T00:48:40.414Z,68.74
2017-09-15T00:49:12.250Z,68.95
2017-09-15T00:49:44.004Z,68.85
2017-09-15T00:50:15.653Z,68.72
2017-09-15T00:50:47.309Z,68.67
2017-09-15T00:51:18.953Z,68.82
2017-09-15T00:51:50.602Z,69.08
2017-09-15T00:52:22.249Z,68.82
2017-09-15T00:52:53.901Z,68.77
2017-09-15T00:53:25.805Z,68.67
2017-09-15T00:53:57.449Z,68.72
2017-09-15T00:54:29.100Z,68.80
2017-09-15T00:55:00.749Z,68.82
2017-09-15T00:55:32.400Z,68.77
2017-09-15T00:56:04.046Z,68.90
2017-09-15T00:56:35.964Z,68.74
2017-09-15T00:57:07.613Z,69.00
2017-09-15T00:57:39.257Z,68.83
2017-09-15T00:58:10.909Z,68.69
2017-09-15T00:58:42.554Z,68.86
2017-09-15T00:59:14.201Z,68.77
2017-09-15T00:59:45.845Z,68.76
2017-09-15T01:00:17.493Z,68.73
2017-09-15T01:00:49.141Z,68.68
2017-09-15T01:01:20.785Z,68.80
2017-09-15T01:01:52.663Z,68.72
2017-09-15T01:02:24.331Z,68.70
2017-09-15T01:02:55.982Z,68.75
2017-09-15T01:03:27.633Z,68.62
2017-09-15T01:03:59.285Z,68.58
2017-09-15T01:04:30.929Z,68.64
2017-09-15T01:05:02.577Z,68.61
2017-09-15T01:05:34.222Z,68.67
2017-09-15T01:06:05.865Z,68.63
2017-09-15T01:06:37.513Z,68.61
2017-09-15T01:07:09.415Z,68.66
2017-09-15T01:07:41.366Z,68.62
2017-09-15T01:08:13.195Z,68.67
2017-09-15T01:08:44.852Z,68.53
2017-09-15T01:09:16.529Z,68.75
2017-09-15T01:09:48.174Z,68.68
2017-09-15T01:10:19.822Z,68.56
2017-09-15T01:10:51.465Z,68.69
2017-09-15T01:11:23.472Z,68.62
2017-09-15T01:11:55.121Z,68.70
2017-09-15T01:12:26.766Z,68.47
2017-09-15T01:12:58.417Z,68.52
2017-09-15T01:13:30.065Z,68.52
2017-09-15T01:14:02.296Z,68.55
2017-09-15T01:14:34.441Z,68.73
2017-09-15T01:15:06.195Z,68.63
2017-09-15T01:15:37.845Z,68.74
2017-09-15T01:16:09.489Z,68.50
2017-09-15T01:16:41.181Z,68.87
2017-09-15T01:17:12.962Z,68.55
2017-09-15T01:17:44.711Z,68.64
2017-09-15T01:18:16.362Z,68.51
2017-09-15T01:18:48.006Z,68.60
2017-09-15T01:19:19.653Z,68.52
2017-09-15T01:19:51.511Z,68.57
2017-09-15T01:20:23.162Z,68.48
2017-09-15T01:20:54.813Z,68.47
2017-09-15T01:21:26.465Z,68.52
2017-09-15T01:21:58.109Z,68.51
2017-09-15T01:22:29.760Z,68.56
2017-09-15T01:23:01.437Z,68.55
2017-09-15T01:23:33.090Z,68.53
2017-09-15T01:24:04.738Z,68.52
2017-09-15T01:24:36.381Z,68.52
2017-09-15T01:25:08.270Z,68.56
2017-09-15T01:25:39.954Z,68.49
2017-09-15T01:26:11.606Z,68.54
2017-09-15T01:26:43.249Z,68.64
2017-09-15T01:27:14.897Z,68.63
2017-09-15T01:27:46.541Z,68.64
2017-09-15T01:28:18.189Z,68.99
2017-09-15T01:28:49.853Z,69.11
2017-09-15T01:29:21.501Z,69.12
2017-09-15T01:29:53.145Z,69.07
2017-09-15T01:30:24.849Z,69.02
2017-09-15T01:30:56.497Z,69.08
2017-09-15T01:31:28.141Z,69.03
2017-09-15T01:31:59.789Z,69.05
2017-09-15T01:32:31.437Z,69.14
2017-09-15T01:33:03.089Z,69.25
2017-09-15T01:33:34.892Z,69.36
2017-09-15T01:34:06.542Z,69.61
2017-09-15T01:34:38.189Z,69.45
2017-09-15T01:35:09.837Z,69.48
2017-09-15T01:35:41.484Z,69.54
2017-09-15T01:36:13.125Z,69.60
2017-09-15T01:36:44.769Z,69.66
2017-09-15T01:37:16.414Z,69.67
2017-09-15T01:37:48.061Z,69.94
2017-09-15T01:38:19.705Z,69.74
2017-09-15T01:38:51.364Z,69.97
2017-09-15T01:39:23.009Z,69.79
2017-09-15T01:39:54.877Z,69.75
2017-09-15T01:40:26.570Z,69.78
2017-09-15T01:40:58.225Z,69.79
2017-09-15T01:41:29.869Z,69.86
2017-09-15T01:42:01.554Z,69.80
2017-09-15T01:42:33.394Z,70.02
2017-09-15T01:43:05.056Z,69.88
2017-09-15T01:43:36.709Z,69.86
2017-09-15T01:44:08.396Z,69.97
2017-09-15T01:44:40.050Z,69.96
2017-09-15T01:45:11.934Z,70.06
2017-09-15T01:45:43.759Z,69.93
2017-09-15T01:46:15.524Z,69.88
2017-09-15T01:46:47.201Z,69.85
2017-09-15T01:47:18.849Z,69.99
2017-09-15T01:47:50.493Z,69.93
2017-09-15T01:48:22.399Z,70.03
2017-09-15T01:48:54.052Z,69.92
2017-09-15T01:49:25.705Z,70.04
2017-09-15T01:49:57.393Z,69.89
2017-09-15T01:50:29.273Z,69.99
2017-09-15T01:51:00.928Z,69.91
2017-09-15T01:51:33.678Z,70.09
2017-09-15T01:52:05.382Z,70.03
2017-09-15T01:52:37.034Z,70.07
2017-09-15T01:53:08.689Z,69.88
2017-09-15T01:53:40.341Z,70.13
2017-09-15T01:54:12.559Z,70.05
2017-09-15T01:54:44.205Z,69.99
2017-09-15T01:55:15.853Z,70.05
2017-09-15T01:55:47.537Z,70.00
2017-09-15T01:56:19.185Z,70.20
2017-09-15T01:56:50.829Z,70.26
2017-09-15T01:57:22.522Z,70.23
2017-09-15T01:57:54.411Z,70.20
2017-09-15T01:58:26.247Z,70.28
2017-09-15T01:58:58.132Z,70.23
2017-09-15T01:59:30.091Z,70.39
2017-09-15T02:00:01.754Z,70.59
2017-09-15T02:00:33.542Z,70.40
2017-09-15T02:01:05.193Z,70.39
2017-09-15T02:01:36.848Z,70.30
2017-09-15T02:02:08.497Z,70.46
2017-09-15T02:02:40.141Z,70.34
2017-09-15T02:03:11.781Z,70.54
2017-09-15T02:03:43.426Z,70.56
2017-09-15T02:04:15.086Z,70.49
2017-09-15T02:04:46.733Z,70.69
2017-09-15T02:05:18.377Z,70.57
2017-09-15T02:05:50.201Z,70.59
2017-09-15T02:06:21.854Z,70.67
2017-09-15T02:06:53.505Z,70.69
2017-09-15T02:07:25.149Z,70.71
2017-09-15T02:07:56.837Z,70.76
2017-09-15T02:08:28.489Z,70.76
2017-09-15T02:09:00.137Z,70.74
2017-09-15T02:09:31.786Z,70.89
2017-09-15T02:10:03.676Z,71.05
2017-09-15T02:10:38.732Z,71.01
2017-09-15T02:11:10.945Z,70.83
2017-09-15T02:11:42.627Z,70.85
2017-09-15T02:12:14.317Z,71.08
2017-09-15T02:12:45.965Z,70.90
2017-09-15T02:13:17.863Z,71.33
2017-09-15T02:13:49.811Z,71.06
2017-09-15T02:14:21.762Z,71.09
2017-09-15T02:14:53.415Z,71.06
2017-09-15T02:15:25.061Z,70.91
2017-09-15T02:15:56.705Z,71.27
2017-09-15T02:16:28.345Z,71.47
2017-09-15T02:17:00.045Z,71.70
2017-09-15T02:17:31.689Z,71.34
2017-09-15T02:18:03.562Z,71.72
2017-09-15T02:18:35.214Z,71.56
2017-09-15T02:19:06.857Z,71.51
2017-09-15T02:19:38.501Z,71.52
2017-09-15T02:20:10.149Z,71.45
2017-09-15T02:20:41.793Z,71.56
2017-09-15T02:21:13.438Z,71.67
2017-09-15T02:21:45.090Z,71.64
2017-09-15T02:22:16.733Z,71.67
2017-09-15T02:22:48.379Z,71.47
2017-09-15T02:23:20.025Z,71.60
2017-09-15T02:23:51.673Z,71.47
2017-09-15T02:24:23.572Z,72.01
2017-09-15T02:24:55.222Z,72.30
2017-09-15T02:25:27.099Z,72.37
2017-09-15T02:25:58.749Z,72.09
2017-09-15T02:26:30.446Z,72.08
2017-09-15T02:27:02.287Z,72.05
2017-09-15T02:27:34.037Z,71.93
2017-09-15T02:28:05.987Z,72.08
2017-09-15T02:28:37.637Z,72.05
2017-09-15T02:29:09.281Z,72.15
2017-09-15T02:29:42.138Z,72.29
2017-09-15T02:30:16.066Z,72.08
2017-09-15T02:30:48.804Z,71.91
2017-09-15T02:31:20.727Z,71.94
2017-09-15T02:31:52.965Z,72.14
2017-09-15T02:32:25.572Z,72.04
2017-09-15T02:32:57.414Z,72.21
2017-09-15T02:33:29.074Z,72.16
2017-09-15T02:34:00.717Z,72.07
2017-09-15T02:34:32.366Z,72.30
2017-09-15T02:35:04.014Z,72.43
2017-09-15T02:35:35.665Z,72.17
2017-09-15T02:36:07.513Z,72.27
2017-09-15T02:36:39.162Z,72.00
2017-09-15T02:37:10.810Z,71.72
2017-09-15T02:37:42.457Z,72.09
2017-09-15T02:38:15.786Z,71.83
2017-09-15T02:38:48.025Z,72.09
2017-09-15T02:39:19.681Z,71.86
2017-09-15T02:39:51.876Z,71.87
2017-09-15T02:40:23.525Z,71.93
2017-09-15T02:40:55.177Z,72.14
2017-09-15T02:41:27.171Z,72.54
2017-09-15T02:41:59.121Z,72.51
2017-09-15T02:42:30.790Z,72.79
2017-09-15T02:43:02.525Z,72.82
2017-09-15T02:43:34.174Z,68.65
2017-09-15T02:44:05.818Z,70.48
2017-09-15T02:44:37.462Z,70.20
2017-09-15T02:45:09.109Z,68.56
2017-09-15T02:45:40.757Z,66.81
2017-09-15T02:46:12.404Z,66.21
2017-09-15T02:46:44.057Z,67.82
2017-09-15T02:47:15.850Z,67.40
2017-09-15T02:47:47.498Z,67.76
2017-09-15T02:48:19.438Z,65.98
2017-09-15T02:48:51.387Z,65.13
2017-09-15T02:49:24.259Z,66.09
2017-09-15T02:49:56.164Z,65.81
2017-09-15T02:50:27.814Z,63.21
2017-09-15T02:50:59.490Z,63.67
2017-09-15T02:51:31.141Z,63.49
2017-09-15T02:52:02.797Z,64.17
2017-09-15T02:52:34.665Z,64.84
2017-09-15T02:53:06.366Z,63.81
2017-09-15T02:53:38.319Z,62.57
2017-09-15T02:54:09.969Z,64.17
2017-09-15T02:54:41.654Z,63.34
2017-09-15T02:55:13.548Z,64.46
2017-09-15T02:55:45.197Z,64.33
2017-09-15T02:56:17.078Z,63.91
2017-09-15T02:56:48.729Z,63.15
2017-09-15T02:57:20.373Z,61.56
2017-09-15T02:57:52.018Z,62.52
2017-09-15T02:58:23.673Z,62.07
2017-09-15T02:58:55.325Z,62.75
2017-09-15T02:59:26.989Z,62.95
2017-09-15T02:59:58.658Z,64.55
2017-09-15T03:00:30.305Z,64.83
2017-09-15T03:01:01.947Z,63.96
2017-09-15T03:01:33.839Z,65.71
2017-09-15T03:02:05.546Z,65.58
2017-09-15T03:02:37.193Z,65.22
2017-09-15T03:03:08.840Z,65.12
2017-09-15T03:03:40.490Z,64.75
2017-09-15T03:04:12.133Z,64.59
2017-09-15T03:04:43.786Z,64.64
2017-09-15T03:05:15.436Z,64.61
2017-09-15T03:05:47.089Z,64.46
2017-09-15T03:06:18.949Z,64.28
2017-09-15T03:06:50.797Z,64.52
2017-09-15T03:07:22.445Z,64.41
2017-09-15T03:07:54.094Z,64.42
2017-09-15T03:08:25.737Z,64.17
2017-09-15T03:08:57.385Z,64.50
2017-09-15T03:09:29.029Z,64.26
2017-09-15T03:10:00.673Z,64.37
2017-09-15T03:10:32.358Z,64.40
2017-09-15T03:11:04.034Z,64.22
2017-09-15T03:11:35.696Z,64.34
2017-09-15T03:12:07.384Z,64.30
2017-09-15T03:12:39.033Z,64.39
2017-09-15T03:13:10.908Z,64.42
2017-09-15T03:13:42.557Z,64.47
2017-09-15T03:14:14.206Z,64.40
2017-09-15T03:14:46.141Z,64.44
2017-09-15T03:15:17.789Z,64.51
2017-09-15T03:15:49.437Z,64.47
2017-09-15T03:16:21.102Z,64.51
2017-09-15T03:16:52.749Z,64.45
2017-09-15T03:17:24.402Z,64.58
2017-09-15T03:17:56.049Z,64.53
2017-09-15T03:18:27.697Z,64.58
2017-09-15T03:18:59.345Z,64.62
2017-09-15T03:19:31.186Z,64.62
2017-09-15T03:20:02.889Z,64.70
2017-09-15T03:20:34.533Z,64.71
2017-09-15T03:21:06.177Z,64.73
2017-09-15T03:21:37.829Z,64.79
2017-09-15T03:22:09.477Z,64.74
2017-09-15T03:22:41.134Z,64.80
2017-09-15T03:23:12.781Z,64.80
2017-09-15T03:23:44.623Z,64.80
2017-09-15T03:24:16.618Z,64.80
2017-09-15T03:24:48.273Z,64.80
2017-09-15T03:25:19.958Z,64.79
2017-09-15T03:25:51.606Z,64.87
2017-09-15T03:26:23.491Z,64.91
2017-09-15T03:26:55.441Z,64.94
2017-09-15T03:27:27.089Z,64.95
2017-09-15T03:27:58.789Z,64.96
2017-09-15T03:28:30.561Z,65.02
2017-09-15T03:29:02.316Z,65.00
2017-09-15T03:29:33.965Z,65.11
2017-09-15T03:30:05.618Z,65.08
2017-09-15T03:30:37.547Z,65.10
2017-09-15T03:31:09.198Z,65.19
2017-09-15T03:31:42.814Z,65.22
2017-09-15T03:32:14.757Z,65.22
2017-09-15T03:32:48.225Z,65.20
2017-09-15T03:33:20.753Z,65.28
2017-09-15T03:33:52.729Z,65.31
2017-09-15T03:34:24.377Z,65.37
2017-09-15T03:34:56.029Z,65.37
2017-09-15T03:35:27.673Z,65.43
2017-09-15T03:35:59.317Z,65.40
2017-09-15T03:36:30.961Z,65.41
2017-09-15T03:37:02.606Z,65.46
2017-09-15T03:37:34.245Z,65.50
2017-09-15T03:38:05.889Z,65.55
2017-09-15T03:38:37.529Z,65.57
2017-09-15T03:39:09.179Z,65.56
2017-09-15T03:39:40.825Z,65.59
2017-09-15T03:40:12.473Z,65.58
2017-09-15T03:40:44.122Z,65.63
2017-09-15T03:41:15.765Z,65.63
2017-09-15T03:41:47.414Z,65.67
2017-09-15T03:42:19.202Z,65.65
2017-09-15T03:42:50.849Z,65.67
2017-09-15T03:43:22.493Z,65.66
2017-09-15T03:43:54.193Z,65.67
2017-09-15T03:44:25.841Z,65.68
2017-09-15T03:44:57.717Z,65.70
2017-09-15T03:45:29.370Z,65.70
2017-09-15T03:46:01.025Z,65.70
2017-09-15T03:46:32.677Z,65.72
2017-09-15T03:47:04.321Z,65.73
2017-09-15T03:47:35.965Z,65.76
2017-09-15T03:48:07.605Z,65.71
2017-09-15T03:48:39.250Z,65.67
2017-09-15T03:49:11.149Z,65.71
2017-09-15T03:49:43.108Z,65.75
2017-09-15T03:50:14.757Z,65.78
2017-09-15T03:50:46.411Z,65.81
2017-09-15T03:51:18.052Z,65.80
2017-09-15T03:51:49.701Z,65.88
2017-09-15T03:52:21.345Z,65.83
2017-09-15T03:52:52.989Z,65.89
2017-09-15T03:53:24.638Z,65.92
2017-09-15T03:53:56.281Z,65.91
2017-09-15T03:54:28.133Z,65.90
2017-09-15T03:54:59.779Z,65.90
2017-09-15T03:55:31.433Z,65.87
2017-09-15T03:56:04.011Z,65.92
2017-09-15T03:56:36.249Z,65.90
2017-09-15T03:57:08.752Z,65.92
2017-09-15T03:57:40.502Z,65.92
2017-09-15T03:58:12.156Z,65.97
2017-09-15T03:58:43.803Z,66.00
2017-09-15T03:59:15.450Z,66.03
2017-09-15T03:59:47.634Z,66.01
2017-09-15T04:00:19.281Z,66.07
2017-09-15T04:00:50.925Z,66.05
2017-09-15T04:01:22.581Z,66.09
2017-09-15T04:01:54.229Z,66.10
2017-09-15T04:02:25.891Z,66.13
2017-09-15T04:02:57.541Z,66.08
2017-09-15T04:03:29.185Z,66.07
2017-09-15T04:04:01.080Z,66.11
2017-09-15T04:04:33.212Z,66.12
2017-09-15T04:05:05.025Z,66.12
2017-09-15T04:05:36.901Z,66.13
2017-09-15T04:06:08.550Z,66.13
2017-09-15T04:06:41.485Z,66.17
2017-09-15T04:07:13.137Z,66.16
2017-09-15T04:07:44.791Z,66.19
2017-09-15T04:08:18.054Z,66.20
2017-09-15T04:08:50.099Z,66.19
2017-09-15T04:09:21.846Z,66.21
2017-09-15T04:09:54.062Z,66.21
2017-09-15T04:10:26.214Z,66.22
2017-09-15T04:10:57.870Z,66.24
2017-09-15T04:11:29.898Z,66.24
2017-09-15T04:12:01.549Z,66.24
2017-09-15T04:12:36.023Z,66.26
2017-09-15T04:13:07.693Z,66.30
2017-09-15T04:13:39.552Z,66.32
2017-09-15T04:14:11.593Z,66.26
2017-09-15T04:14:43.237Z,66.27
2017-09-15T04:15:15.097Z,66.28
2017-09-15T04:15:46.770Z,66.27
2017-09-15T04:16:19.027Z,66.27
2017-09-15T04:16:51.283Z,66.26
2017-09-15T04:17:23.829Z,66.30
2017-09-15T04:17:55.489Z,66.33
2017-09-15T04:18:27.742Z,66.31
2017-09-15T04:18:59.587Z,66.31
2017-09-15T04:19:31.337Z,66.28
2017-09-15T04:20:03.313Z,66.31
2017-09-15T04:20:35.235Z,66.33
2017-09-15T04:21:07.130Z,66.35
2017-09-15T04:21:38.773Z,66.36
2017-09-15T04:22:10.421Z,66.35
2017-09-15T04:22:42.065Z,66.33
2017-09-15T04:23:13.713Z,66.35
2017-09-15T04:23:45.394Z,66.37
2017-09-15T04:24:17.082Z,66.37
2017-09-15T04:24:48.734Z,66.35
2017-09-15T04:25:20.382Z,66.34
2017-09-15T04:25:52.267Z,66.35
2017-09-15T04:26:23.917Z,66.39
2017-09-15T04:26:55.565Z,66.39
2017-09-15T04:27:27.213Z,66.43
2017-09-15T04:27:58.856Z,66.42
2017-09-15T04:28:30.553Z,66.46
2017-09-15T04:29:02.431Z,66.43
2017-09-15T04:29:34.077Z,66.43
2017-09-15T04:30:05.721Z,66.44
2017-09-15T04:30:37.369Z,66.42
2017-09-15T04:31:09.014Z,66.42
2017-09-15T04:31:40.662Z,66.43
2017-09-15T04:32:12.305Z,66.41
2017-09-15T04:32:43.949Z,66.38
2017-09-15T04:33:15.593Z,66.40
2017-09-15T04:33:47.512Z,66.36
2017-09-15T04:34:19.166Z,66.38
2017-09-15T04:34:50.810Z,66.37
2017-09-15T04:35:22.461Z,66.31
2017-09-15T04:35:54.110Z,66.33
2017-09-15T04:36:25.757Z,66.31
2017-09-15T04:36:57.609Z,66.28
2017-09-15T04:37:29.257Z,66.29
2017-09-15T04:38:00.953Z,66.31
2017-09-15T04:38:32.779Z,66.35
2017-09-15T04:39:04.544Z,66.33
2017-09-15T04:39:36.201Z,66.33
2017-09-15T04:40:08.027Z,66.32
2017-09-15T04:40:39.730Z,66.31
2017-09-15T04:41:11.416Z,66.34
2017-09-15T04:41:43.244Z,66.35
2017-09-15T04:42:14.941Z,66.33
2017-09-15T04:42:46.594Z,66.38
2017-09-15T04:43:18.259Z,66.38
2017-09-15T04:43:49.945Z,66.38
2017-09-15T04:44:21.593Z,66.33
2017-09-15T04:44:53.249Z,66.29
2017-09-15T04:45:24.889Z,66.34
2017-09-15T04:45:56.533Z,66.34
2017-09-15T04:46:28.181Z,66.36
2017-09-15T04:46:59.851Z,66.35
2017-09-15T04:47:31.735Z,66.38
2017-09-15T04:48:03.576Z,66.36
2017-09-15T04:48:35.238Z,66.35
2017-09-15T04:49:06.893Z,66.38
2017-09-15T04:49:38.596Z,66.39
2017-09-15T04:50:10.494Z,66.37
2017-09-15T04:50:42.149Z,66.37
2017-09-15T04:51:13.802Z,66.39
2017-09-15T04:51:45.454Z,66.42
2017-09-15T04:52:17.147Z,66.39
2017-09-15T04:52:48.793Z,66.39
2017-09-15T04:53:20.437Z,66.42
2017-09-15T04:53:52.361Z,66.42
2017-09-15T04:54:24.208Z,66.41
2017-09-15T04:54:55.881Z,66.44
2017-09-15T04:55:27.789Z,66.40
2017-09-15T04:55:59.543Z,66.40
2017-09-15T04:56:31.200Z,66.40
2017-09-15T04:57:03.050Z,66.40
2017-09-15T04:57:34.698Z,66.38
2017-09-15T04:58:06.349Z,66.39
2017-09-15T04:58:37.994Z,66.40
2017-09-15T04:59:09.698Z,66.38
2017-09-15T04:59:41.651Z,66.38
2017-09-15T05:00:13.302Z,66.36
2017-09-15T05:00:44.945Z,66.37
2017-09-15T05:01:16.597Z,66.38
2017-09-15T05:01:48.442Z,66.36
2017-09-15T05:02:20.093Z,66.36
2017-09-15T05:02:51.745Z,66.33
2017-09-15T05:03:23.416Z,66.36
2017-09-15T05:03:55.280Z,66.36
2017-09-15T05:04:26.967Z,66.37
2017-09-15T05:04:58.617Z,66.36
2017-09-15T05:05:30.269Z,66.37
2017-09-15T05:06:01.986Z,66.31
2017-09-15T05:06:33.639Z,66.34
2017-09-15T05:07:05.337Z,66.33
2017-09-15T05:07:37.119Z,66.34
2017-09-15T05:08:08.773Z,66.37
2017-09-15T05:08:40.429Z,66.35
2017-09-15T05:09:12.074Z,66.37
2017-09-15T05:09:43.725Z,66.35
2017-09-15T05:10:15.411Z,66.36
2017-09-15T05:10:47.061Z,66.36
2017-09-15T05:11:19.001Z,66.34
2017-09-15T05:11:50.650Z,66.37
2017-09-15T05:12:22.293Z,66.36
2017-09-15T05:12:54.002Z,66.35
2017-09-15T05:13:25.876Z,66.31
2017-09-15T05:13:57.526Z,66.32
2017-09-15T05:14:29.192Z,66.34
2017-09-15T05:15:01.111Z,66.32
2017-09-15T05:15:32.970Z,66.32
2017-09-15T05:16:04.617Z,66.32
2017-09-15T05:16:36.337Z,66.32
2017-09-15T05:17:08.169Z,66.34
2017-09-15T05:17:39.938Z,66.32
2017-09-15T05:18:11.593Z,66.29
2017-09-15T05:18:43.237Z,66.27
2017-09-15T05:19:14.882Z,66.27
2017-09-15T05:19:46.530Z,66.26
2017-09-15T05:20:18.174Z,66.26
2017-09-15T05:20:49.829Z,66.26
2017-09-15T05:21:21.485Z,66.27
2017-09-15T05:21:53.187Z,66.24
2017-09-15T05:22:24.840Z,66.27
2017-09-15T05:22:56.482Z,66.27
2017-09-15T05:23:28.218Z,66.26
2017-09-15T05:23:59.861Z,66.26
2017-09-15T05:24:31.501Z,66.25
2017-09-15T05:25:03.173Z,66.24
2017-09-15T05:25:35.042Z,66.23
2017-09-15T05:26:06.818Z,66.21
2017-09-15T05:26:38.470Z,66.23
2017-09-15T05:27:10.126Z,66.21
2017-09-15T05:27:41.990Z,66.21
2017-09-15T05:28:13.692Z,66.22
2017-09-15T05:28:45.557Z,66.22
2017-09-15T05:29:17.285Z,66.22
2017-09-15T05:29:48.937Z,66.20
2017-09-15T05:30:20.585Z,66.22
2017-09-15T05:30:52.234Z,66.20
2017-09-15T05:31:23.994Z,66.21
2017-09-15T05:31:55.802Z,66.21
2017-09-15T05:32:27.454Z,66.21
2017-09-15T05:32:59.102Z,66.21
2017-09-15T05:33:30.750Z,66.18
2017-09-15T05:34:02.394Z,66.18
2017-09-15T05:34:34.046Z,66.21
2017-09-15T05:35:05.761Z,66.17
2017-09-15T05:35:37.601Z,66.18
2017-09-15T05:36:09.551Z,66.17
2017-09-15T05:36:42.054Z,66.17
2017-09-15T05:37:13.700Z,66.17
2017-09-15T05:37:45.350Z,66.17
2017-09-15T05:38:17.039Z,66.17
2017-09-15T05:38:48.902Z,66.17
2017-09-15T05:39:20.553Z,66.17
2017-09-15T05:39:52.222Z,66.16
2017-09-15T05:40:23.873Z,66.17
2017-09-15T05:40:55.550Z,66.17
2017-09-15T05:41:27.396Z,66.17
2017-09-15T05:41:59.055Z,66.18
2017-09-15T05:42:30.701Z,66.17
2017-09-15T05:43:02.349Z,66.18
2017-09-15T05:43:34.305Z,66.18
2017-09-15T05:44:06.021Z,66.16
2017-09-15T05:44:38.281Z,66.19
2017-09-15T05:45:09.969Z,66.16
2017-09-15T05:45:41.617Z,66.18
2017-09-15T05:46:13.321Z,66.17
2017-09-15T05:46:44.970Z,66.17
2017-09-15T05:47:16.613Z,66.20
2017-09-15T05:47:48.257Z,66.20
2017-09-15T05:48:20.079Z,66.20
2017-09-15T05:48:51.729Z,66.18
2017-09-15T05:49:23.374Z,66.20
2017-09-15T05:49:55.017Z,66.20
2017-09-15T05:50:26.803Z,66.15
2017-09-15T05:50:58.595Z,66.15
2017-09-15T05:51:30.545Z,66.16
2017-09-15T05:52:02.205Z,66.16
2017-09-15T05:52:33.853Z,66.15
2017-09-15T05:53:05.714Z,66.15
2017-09-15T05:53:37.726Z,66.13
2017-09-15T05:54:09.697Z,66.09
2017-09-15T05:54:41.349Z,66.05
2017-09-15T05:55:12.997Z,66.07
2017-09-15T05:55:44.649Z,66.04
2017-09-15T05:56:16.301Z,66.01
2017-09-15T05:56:48.192Z,66.03
2017-09-15T05:57:20.077Z,66.03
2017-09-15T05:57:51.725Z,66.07
2017-09-15T05:58:23.384Z,66.03
2017-09-15T05:58:55.118Z,66.03
2017-09-15T05:59:26.778Z,66.01
2017-09-15T05:59:58.657Z,66.02
2017-09-15T06:00:30.607Z,65.93
2017-09-15T06:01:02.257Z,65.95
2017-09-15T06:01:33.902Z,65.91
2017-09-15T06:02:05.546Z,65.85
2017-09-15T06:02:37.197Z,65.84
2017-09-15T06:03:08.838Z,65.81
2017-09-15T06:03:40.533Z,65.81
2017-09-15T06:04:12.361Z,65.76
2017-09-15T06:04:44.005Z,65.73
2017-09-15T06:05:15.653Z,65.66
2017-09-15T06:05:47.335Z,65.64
2017-09-15T06:06:18.989Z,65.66
2017-09-15T06:06:51.454Z,65.67
2017-09-15T06:07:23.492Z,65.64
2017-09-15T06:07:55.396Z,65.59
2017-09-15T06:08:27.517Z,65.53
2017-09-15T06:08:59.177Z,65.52
2017-09-15T06:09:30.829Z,65.50
2017-09-15T06:10:02.473Z,65.46
2017-09-15T06:10:34.118Z,65.48
2017-09-15T06:11:05.902Z,65.49
2017-09-15T06:11:37.593Z,65.48
2017-09-15T06:12:09.242Z,65.43
2017-09-15T06:12:40.893Z,65.47
2017-09-15T06:13:12.779Z,65.46
2017-09-15T06:13:44.433Z,65.48
2017-09-15T06:14:16.368Z,65.48
2017-09-15T06:14:48.017Z,65.46
2017-09-15T06:15:19.670Z,65.46
2017-09-15T06:15:51.601Z,65.46
2017-09-15T06:16:23.249Z,65.42
2017-09-15T06:16:54.893Z,65.41
2017-09-15T06:17:26.545Z,65.40
2017-09-15T06:17:58.197Z,65.41
2017-09-15T06:18:29.837Z,65.45
2017-09-15T06:19:01.485Z,65.45
2017-09-15T06:19:33.129Z,65.44
2017-09-15T06:20:04.983Z,65.40
2017-09-15T06:20:36.630Z,65.39
2017-09-15T06:21:08.327Z,65.41
2017-09-15T06:21:40.201Z,65.40
2017-09-15T06:22:11.909Z,65.39
2017-09-15T06:22:43.609Z,65.31
2017-09-15T06:23:15.321Z,65.36
2017-09-15T06:23:46.969Z,65.33
2017-09-15T06:24:18.618Z,65.34
2017-09-15T06:24:50.260Z,65.32
2017-09-15T06:25:21.913Z,65.33
2017-09-15T06:25:58.021Z,65.35
2017-09-15T06:26:29.669Z,65.34
2017-09-15T06:27:01.314Z,65.36
2017-09-15T06:27:32.964Z,65.34
2017-09-15T06:28:04.862Z,65.38
2017-09-15T06:28:37.429Z,65.38
2017-09-15T06:29:10.223Z,65.38
2017-09-15T06:29:42.178Z,65.39
2017-09-15T06:30:13.851Z,65.40
2017-09-15T06:30:45.505Z,65.43
2017-09-15T06:31:17.157Z,65.43
2017-09-15T06:31:48.847Z,65.42
2017-09-15T06:32:20.498Z,65.43
2017-09-15T06:32:52.145Z,65.45
2017-09-15T06:33:24.010Z,65.49
2017-09-15T06:33:55.706Z,65.49
2017-09-15T06:34:27.363Z,65.50
2017-09-15T06:34:59.006Z,65.56
2017-09-15T06:35:30.653Z,65.53
2017-09-15T06:36:02.309Z,65.55
2017-09-15T06:36:33.957Z,65.56
2017-09-15T06:37:05.597Z,65.59
2017-09-15T06:37:37.245Z,65.61
2017-09-15T06:38:08.893Z,65.63
2017-09-15T06:38:40.549Z,65.63
2017-09-15T06:39:12.249Z,65.65
2017-09-15T06:39:43.897Z,65.67
2017-09-15T06:40:15.541Z,65.66
2017-09-15T06:40:47.371Z,65.67
2017-09-15T06:41:19.021Z,65.67
2017-09-15T06:41:50.685Z,65.70
2017-09-15T06:42:22.605Z,65.69
2017-09-15T06:42:54.274Z,65.71
2017-09-15T06:43:25.921Z,65.71
2017-09-15T06:43:57.561Z,65.72
2017-09-15T06:44:29.435Z,65.75
2017-09-15T06:45:01.077Z,65.75
2017-09-15T06:45:32.764Z,65.75
2017-09-15T06:46:04.413Z,65.74
2017-09-15T06:46:36.069Z,65.74
2017-09-15T06:47:07.714Z,65.75
2017-09-15T06:47:39.410Z,65.76
2017-09-15T06:48:11.308Z,65.77
2017-09-15T06:48:42.966Z,65.79